createdAt,value
2024-01-24T00:00:18.060Z,15.23
2024-01-24T00:02:50.456Z,8.13
2024-01-24T00:07:47.173Z,9.05
2024-01-24T00:10:15.626Z,8.00
2024-01-24T00:12:43.956Z,7.68
2024-01-24T00:15:12.512Z,10.30
2024-01-24T00:17:42.641Z,8.32
2024-01-24T00:20:13.706Z,8.60
2024-01-24T00:22:41.999Z,8.57
2024-01-24T00:25:10.662Z,10.52
2024-01-24T00:27:38.895Z,9.48
2024-01-24T00:30:09.039Z,9.10
2024-01-24T00:32:37.524Z,8.00
2024-01-24T00:35:08.322Z,8.52
2024-01-24T00:37:36.628Z,9.50
2024-01-24T00:40:05.717Z,8.45
2024-01-24T00:42:34.043Z,7.95
2024-01-24T00:45:02.444Z,9.50
2024-01-24T00:47:30.653Z,6.32
2024-01-24T00:49:58.859Z,8.73
2024-01-24T00:52:28.442Z,8.85
2024-01-24T00:54:56.814Z,11.75
2024-01-24T00:57:25.063Z,9.35
2024-01-24T00:59:53.345Z,11.02
2024-01-24T01:02:21.614Z,7.00
2024-01-24T01:04:51.418Z,7.85
2024-01-24T01:07:19.679Z,12.23
2024-01-24T01:09:49.449Z,9.57
2024-01-24T01:12:19.671Z,8.85
2024-01-24T01:14:48.237Z,6.95
2024-01-24T01:17:16.569Z,8.18
2024-01-24T01:19:44.792Z,6.63
2024-01-24T01:22:13.148Z,8.13
2024-01-24T01:24:41.420Z,8.35
2024-01-24T01:27:11.039Z,5.82
2024-01-24T01:29:39.279Z,8.88
2024-01-24T01:32:08.613Z,8.05
2024-01-24T01:34:36.978Z,11.48
2024-01-24T01:37:05.878Z,8.23
2024-01-24T01:39:34.146Z,7.55
2024-01-24T01:42:02.449Z,10.07
2024-01-24T01:44:32.186Z,5.90
2024-01-24T01:47:00.483Z,5.38
2024-01-24T01:49:28.937Z,6.25
2024-01-24T01:51:58.067Z,9.27
2024-01-24T01:54:26.527Z,5.43
2024-01-24T01:56:55.000Z,6.25
2024-01-24T01:59:23.289Z,5.88
2024-01-24T02:01:54.321Z,6.72
2024-01-24T02:04:23.352Z,5.18
2024-01-24T02:06:51.856Z,6.10
2024-01-24T02:09:20.099Z,5.20
2024-01-24T02:11:48.383Z,5.70
2024-01-24T02:14:16.785Z,5.07
2024-01-24T02:16:44.999Z,4.43
2024-01-24T02:19:14.771Z,6.13
2024-01-24T02:21:45.659Z,6.68
2024-01-24T02:24:15.385Z,3.83
2024-01-24T02:26:44.096Z,7.07
2024-01-24T02:29:12.908Z,3.55
2024-01-24T02:31:41.055Z,3.97
2024-01-24T02:34:09.350Z,3.15
2024-01-24T02:36:37.848Z,3.60
2024-01-24T02:39:06.568Z,2.85
2024-01-24T02:41:36.151Z,4.95
2024-01-24T02:44:04.722Z,4.20
2024-01-24T02:46:32.838Z,2.67
2024-01-24T02:49:01.455Z,3.60
2024-01-24T02:51:29.830Z,4.00
2024-01-24T02:53:58.038Z,3.60
2024-01-24T02:56:26.273Z,3.95
2024-01-24T02:58:55.978Z,4.30
2024-01-24T03:01:24.276Z,2.47
2024-01-24T03:03:52.543Z,2.72
2024-01-24T03:06:20.846Z,4.00
2024-01-24T03:08:51.178Z,2.00
2024-01-24T03:11:20.018Z,3.22
2024-01-24T03:13:48.205Z,3.50
2024-01-24T03:16:19.504Z,3.65
2024-01-24T03:18:49.399Z,2.35
2024-01-24T03:21:19.537Z,3.03
2024-01-24T03:23:47.973Z,3.08
2024-01-24T03:26:17.390Z,1.65
2024-01-24T03:28:45.597Z,2.30
2024-01-24T03:31:14.133Z,2.38
2024-01-24T03:33:43.840Z,4.60
2024-01-24T03:36:12.436Z,4.00
2024-01-24T03:38:40.589Z,6.13
2024-01-24T03:41:10.068Z,3.42
2024-01-24T03:43:41.665Z,6.30
2024-01-24T03:46:10.078Z,2.20
2024-01-24T03:48:38.402Z,2.47
2024-01-24T03:51:10.715Z,2.00
2024-01-24T03:53:39.249Z,1.75
2024-01-24T03:56:08.238Z,1.10
2024-01-24T03:58:37.530Z,1.48
2024-01-24T04:01:06.558Z,0.82
2024-01-24T04:03:34.957Z,1.35
2024-01-24T04:06:03.272Z,1.55
2024-01-24T04:08:32.864Z,1.50
2024-01-24T04:11:01.165Z,2.85
2024-01-24T04:13:29.319Z,2.42
2024-01-24T04:15:57.534Z,0.70
2024-01-24T04:18:26.161Z,1.70
2024-01-24T04:20:54.476Z,1.30
2024-01-24T04:23:22.625Z,1.05
2024-01-24T04:25:52.266Z,0.75
2024-01-24T04:28:20.531Z,0.63
2024-01-24T04:30:48.752Z,2.97
2024-01-24T04:33:17.235Z,1.27
2024-01-24T04:35:47.085Z,0.75
2024-01-24T04:38:15.363Z,0.77
2024-01-24T04:40:44.072Z,3.72
2024-01-24T04:43:13.666Z,0.93
2024-01-24T04:45:42.145Z,2.05
2024-01-24T04:48:10.475Z,3.28
2024-01-24T04:50:39.019Z,2.42
2024-01-24T04:53:07.289Z,3.38
2024-01-24T04:55:35.445Z,3.58
2024-01-24T04:58:04.398Z,1.45
2024-01-24T05:00:38.083Z,0.98
2024-01-24T05:03:06.762Z,3.97
2024-01-24T05:05:34.952Z,2.40
2024-01-24T05:08:03.156Z,1.98
2024-01-24T05:10:31.341Z,1.25
2024-01-24T05:12:59.716Z,4.40
2024-01-24T05:15:27.974Z,4.20
2024-01-24T05:17:57.640Z,2.13
2024-01-24T05:20:26.264Z,4.05
2024-01-24T05:22:54.520Z,4.07
2024-01-24T05:25:23.160Z,2.72
2024-01-24T05:27:51.708Z,5.13
2024-01-24T05:30:29.913Z,6.45
2024-01-24T05:33:06.209Z,5.80
2024-01-24T05:35:34.745Z,8.23
2024-01-24T05:38:02.987Z,6.82
2024-01-24T05:40:31.164Z,6.68
2024-01-24T05:43:00.470Z,8.43
2024-01-24T05:45:28.814Z,9.45
2024-01-24T05:47:57.198Z,9.57
2024-01-24T05:50:26.814Z,9.75
2024-01-24T05:52:55.029Z,8.43
2024-01-24T05:55:23.342Z,8.43
2024-01-24T05:57:51.772Z,8.40
2024-01-24T06:00:20.395Z,21.90
2024-01-24T06:02:49.147Z,16.17
2024-01-24T06:05:17.696Z,19.63
2024-01-24T06:07:50.397Z,18.40
2024-01-24T06:10:18.972Z,23.85
2024-01-24T06:12:47.172Z,17.33
2024-01-24T06:15:15.442Z,23.75
2024-01-24T06:17:43.822Z,18.13
2024-01-24T06:20:14.875Z,20.70
2024-01-24T06:22:43.388Z,27.30
2024-01-24T06:25:13.810Z,30.00
2024-01-24T06:27:43.104Z,31.13
2024-01-24T06:30:19.963Z,24.83
2024-01-24T06:32:52.751Z,20.77
2024-01-24T06:35:22.199Z,26.42
2024-01-24T06:37:52.775Z,31.63
2024-01-24T06:40:22.381Z,28.58
2024-01-24T06:42:51.561Z,30.10
2024-01-24T06:45:23.114Z,27.80
2024-01-24T06:47:51.376Z,26.65
2024-01-24T06:50:19.772Z,25.27
2024-01-24T06:52:48.626Z,27.85
2024-01-24T06:55:19.116Z,34.58
2024-01-24T06:57:48.933Z,31.83
2024-01-24T07:00:20.022Z,36.38
2024-01-24T07:02:49.894Z,31.35
2024-01-24T07:05:18.546Z,32.28
2024-01-24T07:07:46.790Z,25.65
2024-01-24T07:10:15.096Z,28.05
2024-01-24T07:12:47.649Z,23.02
2024-01-24T07:15:18.562Z,23.98
2024-01-24T07:17:47.948Z,30.38
2024-01-24T07:20:19.280Z,25.52
2024-01-24T07:22:47.500Z,31.85
2024-01-24T07:25:15.902Z,30.08
2024-01-24T07:27:45.899Z,29.60
2024-01-24T07:30:16.797Z,30.80
2024-01-24T07:32:46.459Z,32.22
2024-01-24T07:35:14.819Z,29.25
2024-01-24T07:37:44.605Z,28.33
2024-01-24T07:40:15.456Z,32.47
2024-01-24T07:42:44.308Z,33.88
2024-01-24T07:45:12.927Z,38.60
2024-01-24T07:47:45.969Z,29.05
2024-01-24T07:50:15.863Z,33.03
2024-01-24T07:52:44.567Z,40.33
2024-01-24T07:55:13.878Z,36.92
2024-01-24T07:57:43.313Z,33.10
2024-01-24T08:00:19.029Z,36.67
2024-01-24T08:02:51.641Z,38.03
2024-01-24T08:05:23.377Z,36.83
2024-01-24T08:07:52.364Z,47.20
2024-01-24T08:10:21.004Z,34.53
2024-01-24T08:12:50.516Z,44.38
2024-01-24T08:15:19.277Z,38.25
2024-01-24T08:17:48.501Z,40.90
2024-01-24T08:20:18.684Z,38.30
2024-01-24T08:22:50.997Z,45.60
2024-01-24T08:25:19.172Z,40.33
2024-01-24T08:27:47.522Z,39.97
2024-01-24T08:30:16.890Z,42.10
2024-01-24T08:32:45.259Z,40.65
2024-01-24T08:35:14.089Z,40.63
2024-01-24T08:37:42.311Z,44.80
2024-01-24T08:40:12.584Z,44.72
2024-01-24T08:42:42.645Z,39.83
2024-01-24T08:45:11.424Z,37.95
2024-01-24T08:47:39.918Z,39.28
2024-01-24T08:50:10.281Z,44.25
2024-01-24T08:52:39.486Z,42.13
2024-01-24T08:55:09.381Z,42.80
2024-01-24T08:57:39.146Z,44.17
2024-01-24T09:00:09.825Z,36.90
2024-01-24T09:02:38.306Z,41.72
2024-01-24T09:05:09.637Z,36.88
2024-01-24T09:07:38.568Z,46.60
2024-01-24T09:10:10.354Z,44.78
2024-01-24T09:12:40.289Z,40.40
2024-01-24T09:15:10.890Z,42.22
2024-01-24T09:17:39.221Z,42.95
2024-01-24T09:20:09.996Z,37.25
2024-01-24T09:22:38.967Z,39.72
2024-01-24T09:25:09.192Z,42.60
2024-01-24T09:27:40.253Z,40.90
2024-01-24T09:30:11.089Z,42.67
2024-01-24T09:32:39.614Z,42.33
2024-01-24T09:35:09.069Z,40.38
2024-01-24T09:37:37.394Z,55.88
2024-01-24T09:40:07.807Z,40.55
2024-01-24T09:42:45.109Z,54.40
2024-01-24T09:45:17.584Z,36.03
2024-01-24T09:47:47.446Z,43.13
2024-01-24T09:50:16.747Z,48.20
2024-01-24T09:52:47.251Z,59.35
2024-01-24T09:55:20.633Z,43.28
2024-01-24T09:57:50.832Z,47.65
2024-01-24T10:00:19.648Z,38.95
2024-01-24T10:02:48.913Z,46.05
2024-01-24T10:05:19.433Z,52.72
2024-01-24T10:07:48.619Z,45.33
2024-01-24T10:10:17.408Z,45.78
2024-01-24T10:12:46.338Z,35.33
2024-01-24T10:15:16.138Z,60.05
2024-01-24T10:17:47.304Z,48.28
2024-01-24T10:20:15.709Z,40.38
2024-01-24T10:22:46.048Z,41.00
2024-01-24T10:25:14.698Z,41.42
2024-01-24T10:27:43.730Z,45.92
2024-01-24T10:30:16.800Z,39.28
2024-01-24T10:35:15.714Z,41.67
2024-01-24T10:37:44.418Z,40.80
2024-01-24T10:40:17.541Z,56.90
2024-01-24T10:42:48.905Z,53.65
2024-01-24T10:45:23.531Z,39.53
2024-01-24T10:47:55.754Z,55.25
2024-01-24T10:50:24.234Z,41.53
2024-01-24T10:52:55.023Z,45.75
2024-01-24T10:55:24.581Z,48.47
2024-01-24T10:57:54.266Z,45.20
2024-01-24T11:00:25.626Z,44.83
2024-01-24T11:02:55.405Z,53.65
2024-01-24T11:05:31.704Z,53.03
2024-01-24T11:08:05.460Z,42.85
2024-01-24T11:10:38.786Z,44.15
2024-01-24T11:13:08.175Z,45.97
2024-01-24T11:15:38.002Z,51.95
2024-01-24T11:18:24.221Z,46.00
2024-01-24T11:20:54.348Z,45.03
2024-01-24T11:23:46.042Z,47.50
2024-01-24T11:26:36.414Z,53.25
2024-01-24T11:29:08.735Z,54.05
2024-01-24T11:31:42.360Z,50.53
2024-01-24T11:34:12.853Z,59.53
2024-01-24T11:36:49.003Z,52.35
2024-01-24T11:39:42.074Z,44.45
2024-01-24T11:45:16.690Z,46.80
2024-01-24T11:47:48.743Z,35.63
2024-01-24T11:50:20.667Z,51.83
2024-01-24T11:52:50.519Z,46.25
2024-01-24T11:55:18.890Z,57.17
2024-01-24T11:57:47.353Z,52.80
2024-01-24T12:00:17.166Z,46.42
2024-01-24T12:02:49.751Z,51.45
2024-01-24T12:05:20.014Z,49.13
2024-01-24T12:07:48.794Z,42.05
2024-01-24T12:10:17.939Z,42.40
2024-01-24T12:12:46.613Z,59.95
2024-01-24T12:15:15.312Z,44.30
2024-01-24T12:17:45.643Z,41.63
2024-01-24T12:20:29.070Z,51.20
2024-01-24T12:22:58.593Z,50.25
2024-01-24T12:25:28.298Z,54.83
2024-01-24T12:27:58.531Z,51.58
2024-01-24T12:30:33.753Z,45.95
2024-01-24T12:33:03.451Z,48.17
2024-01-24T12:35:34.162Z,50.15
2024-01-24T12:38:03.961Z,48.15
2024-01-24T12:40:33.975Z,58.67
2024-01-24T12:43:02.413Z,54.78
2024-01-24T12:45:30.755Z,44.10
2024-01-24T12:47:59.269Z,48.92
2024-01-24T12:50:27.674Z,43.47
2024-01-24T12:52:57.388Z,48.25
2024-01-24T12:55:25.690Z,55.65
2024-01-24T12:57:54.333Z,46.22
2024-01-24T13:00:22.970Z,46.17
2024-01-24T13:02:51.971Z,45.35
2024-01-24T13:05:23.452Z,47.13
2024-01-24T13:07:58.701Z,57.90
2024-01-24T13:10:28.433Z,42.60
2024-01-24T13:12:56.807Z,47.63
2024-01-24T13:15:25.476Z,52.67
2024-01-24T13:17:53.770Z,40.03
2024-01-24T13:20:22.005Z,48.40
2024-01-24T13:22:50.160Z,40.60
2024-01-24T13:25:20.015Z,40.63
2024-01-24T13:27:49.602Z,46.17
2024-01-24T13:30:18.324Z,48.90
2024-01-24T13:32:46.545Z,41.88
2024-01-24T13:35:15.308Z,53.55
2024-01-24T13:37:43.611Z,54.03
2024-01-24T13:40:12.860Z,49.63
2024-01-24T13:42:44.206Z,37.53
2024-01-24T13:45:12.584Z,54.78
2024-01-24T13:47:41.149Z,40.40
2024-01-24T13:50:12.758Z,53.97
2024-01-24T13:52:41.534Z,45.57
2024-01-24T13:55:12.054Z,40.88
2024-01-24T13:57:43.945Z,52.00
2024-01-24T14:02:44.925Z,35.58
2024-01-24T14:05:13.355Z,39.85
2024-01-24T14:07:44.755Z,47.10
2024-01-24T14:10:14.128Z,39.20
2024-01-24T14:12:51.725Z,39.53
2024-01-24T14:15:29.452Z,49.35
2024-01-24T14:18:02.924Z,42.78
2024-01-24T14:20:31.274Z,35.75
2024-01-24T14:23:00.984Z,51.58
2024-01-24T14:25:29.210Z,42.25
2024-01-24T14:27:58.945Z,41.80
2024-01-24T14:30:27.244Z,46.63
2024-01-24T14:32:55.532Z,42.08
2024-01-24T14:35:25.028Z,44.45
2024-01-24T14:37:53.452Z,51.08
2024-01-24T14:40:22.495Z,43.45
2024-01-24T14:42:50.804Z,51.55
2024-01-24T14:45:20.858Z,48.22
2024-01-24T14:47:49.406Z,38.63
2024-01-24T14:50:18.478Z,45.05
2024-01-24T14:52:46.685Z,44.95
2024-01-24T14:55:15.015Z,54.92
2024-01-24T14:57:43.702Z,48.28
2024-01-24T15:00:14.064Z,52.08
2024-01-24T15:02:43.655Z,53.22
2024-01-24T15:05:11.925Z,55.83
2024-01-24T15:07:40.640Z,41.40
2024-01-24T15:10:10.851Z,50.92
2024-01-24T15:12:39.753Z,42.22
2024-01-24T15:15:09.488Z,48.28
2024-01-24T15:17:37.899Z,44.78
2024-01-24T15:20:10.297Z,62.55
2024-01-24T15:22:40.316Z,49.95
2024-01-24T15:25:10.961Z,41.88
2024-01-24T15:27:40.325Z,55.30
2024-01-24T15:30:10.806Z,50.05
2024-01-24T15:32:39.250Z,45.35
2024-01-24T15:35:09.717Z,50.95
2024-01-24T15:37:38.110Z,46.20
2024-01-24T15:40:11.052Z,49.33
2024-01-24T15:42:43.463Z,52.05
2024-01-24T15:45:14.539Z,52.67
2024-01-24T15:47:42.920Z,51.08
2024-01-24T15:50:14.478Z,38.13
2024-01-24T15:52:42.992Z,52.17
2024-01-24T15:55:12.462Z,47.20
2024-01-24T15:57:41.107Z,48.42
2024-01-24T16:00:11.707Z,54.88
2024-01-24T16:02:42.743Z,51.25
2024-01-24T16:05:26.709Z,43.85
2024-01-24T16:07:55.132Z,55.83
2024-01-24T16:10:23.909Z,51.53
2024-01-24T16:12:52.149Z,53.25
2024-01-24T16:15:20.561Z,56.35
2024-01-24T16:17:49.298Z,38.30
2024-01-24T16:20:19.203Z,48.00
2024-01-24T16:22:54.695Z,46.72
2024-01-24T16:25:25.059Z,48.03
2024-01-24T16:27:53.568Z,50.00
2024-01-24T16:30:25.963Z,51.25
2024-01-24T16:35:25.189Z,40.90
2024-01-24T16:37:53.811Z,49.53
2024-01-24T16:40:22.200Z,46.80
2024-01-24T16:42:50.591Z,50.90
2024-01-24T16:45:19.223Z,55.38
2024-01-24T16:47:47.479Z,64.18
2024-01-24T16:50:15.653Z,44.50
2024-01-24T16:52:45.378Z,46.30
2024-01-24T16:55:13.935Z,50.80
2024-01-24T16:57:42.500Z,49.30
2024-01-24T17:00:12.067Z,48.10
2024-01-24T17:02:46.400Z,43.72
2024-01-24T17:05:20.365Z,52.38
2024-01-24T17:07:50.060Z,50.72
2024-01-24T17:10:19.327Z,45.00
2024-01-24T17:12:47.942Z,54.67
2024-01-24T17:15:16.237Z,60.88
2024-01-24T17:17:45.523Z,48.45
2024-01-24T17:20:13.923Z,51.40
2024-01-24T17:22:42.638Z,45.72
2024-01-24T17:25:14.236Z,59.00
2024-01-24T17:27:42.584Z,48.00
2024-01-24T17:30:12.903Z,54.22
2024-01-24T17:32:42.788Z,63.75
2024-01-24T17:35:11.148Z,55.30
2024-01-24T17:37:39.611Z,58.92
2024-01-24T17:40:11.704Z,61.85
2024-01-24T17:42:40.255Z,55.90
2024-01-24T17:45:09.474Z,45.05
2024-01-24T17:47:38.795Z,46.17
2024-01-24T17:50:09.852Z,52.30
2024-01-24T17:52:40.250Z,49.88
2024-01-24T17:55:11.692Z,54.35
2024-01-24T17:57:40.267Z,50.83
2024-01-24T18:00:10.154Z,61.65
2024-01-24T18:02:38.629Z,52.33
2024-01-24T18:05:09.098Z,58.65
2024-01-24T18:07:38.543Z,47.95
2024-01-24T18:10:08.576Z,49.20
2024-01-24T18:12:38.249Z,47.50
2024-01-24T18:15:07.870Z,47.65
2024-01-24T18:17:38.125Z,51.67
2024-01-24T18:20:08.589Z,49.35
2024-01-24T18:22:37.015Z,50.58
2024-01-24T18:25:06.240Z,49.83
2024-01-24T18:27:34.561Z,50.55
2024-01-24T18:30:04.761Z,50.50
2024-01-24T18:32:35.284Z,53.60
2024-01-24T18:35:04.119Z,56.40
2024-01-24T18:37:33.548Z,49.92
2024-01-24T18:40:02.389Z,54.30
2024-01-24T18:42:30.730Z,42.72
2024-01-24T18:44:58.959Z,54.05
2024-01-24T18:47:30.027Z,49.45
2024-01-24T18:50:02.352Z,49.20
2024-01-24T18:52:31.551Z,57.45
2024-01-24T18:55:02.922Z,45.95
2024-01-24T18:57:31.999Z,63.03
2024-01-24T19:00:00.635Z,52.72
2024-01-24T19:02:30.565Z,55.65
2024-01-24T19:04:59.375Z,49.28
2024-01-24T19:07:27.835Z,48.85
2024-01-24T19:09:56.163Z,52.25
2024-01-24T19:12:24.670Z,56.85
2024-01-24T19:15:08.627Z,47.50
2024-01-24T19:17:39.437Z,54.35
2024-01-24T19:20:09.353Z,57.97
2024-01-24T19:22:37.715Z,55.80
2024-01-24T19:25:09.084Z,56.13
2024-01-24T19:27:37.684Z,50.20
2024-01-24T19:30:07.938Z,51.35
2024-01-24T19:32:36.279Z,52.17
2024-01-24T19:35:05.849Z,57.85
2024-01-24T19:37:34.372Z,55.97
2024-01-24T19:40:06.325Z,63.97
2024-01-24T19:42:34.961Z,64.35
2024-01-24T19:45:03.778Z,51.92
2024-01-24T19:47:34.112Z,56.35
2024-01-24T19:50:06.911Z,54.97
2024-01-24T19:55:06.390Z,51.38
2024-01-24T19:57:35.313Z,53.33
2024-01-24T20:00:04.728Z,59.13
2024-01-24T20:02:34.795Z,54.58
2024-01-24T20:05:04.744Z,68.65
2024-01-24T20:07:33.122Z,51.42
2024-01-24T20:10:03.795Z,59.88
2024-01-24T20:12:32.497Z,56.03
2024-01-24T20:15:01.121Z,56.30
2024-01-24T20:17:29.740Z,61.92
2024-01-24T20:19:58.356Z,43.63
2024-01-24T20:22:30.663Z,48.63
2024-01-24T20:24:58.940Z,50.17
2024-01-24T20:27:28.733Z,57.80
2024-01-24T20:29:59.653Z,52.70
2024-01-24T20:32:28.059Z,45.15
2024-01-24T20:34:56.613Z,44.58
2024-01-24T20:37:24.976Z,48.67
2024-01-24T20:39:58.856Z,52.00
2024-01-24T20:42:34.060Z,46.17
2024-01-24T20:45:07.248Z,59.58
2024-01-24T20:47:36.646Z,50.55
2024-01-24T20:50:05.734Z,43.65
2024-01-24T20:52:34.034Z,53.45
2024-01-24T20:55:02.446Z,51.97
2024-01-24T20:57:34.082Z,43.92
2024-01-24T21:00:02.997Z,48.72
2024-01-24T21:02:31.277Z,62.90
2024-01-24T21:04:59.791Z,52.58
2024-01-24T21:07:28.444Z,56.70
2024-01-24T21:09:57.979Z,62.22
2024-01-24T21:12:32.705Z,51.70
2024-01-24T21:15:07.325Z,53.05
2024-01-24T21:17:45.901Z,56.50
2024-01-24T21:20:20.411Z,70.15
2024-01-24T21:26:11.982Z,62.72
2024-01-24T21:28:46.362Z,69.93
2024-01-24T21:31:25.497Z,51.13
2024-01-24T21:33:55.909Z,65.95
2024-01-24T21:36:28.401Z,49.25
2024-01-24T21:38:57.936Z,68.15
2024-01-24T21:41:29.202Z,62.75
2024-01-24T21:43:57.376Z,65.47
2024-01-24T21:46:26.972Z,56.67
2024-01-24T21:48:55.533Z,51.58
2024-01-24T21:51:23.802Z,55.13
2024-01-24T21:53:52.468Z,44.63
2024-01-24T21:56:28.559Z,60.20
2024-01-24T21:58:59.681Z,55.88
2024-01-24T22:01:35.209Z,56.58
2024-01-24T22:04:04.942Z,62.15
2024-01-24T22:06:33.342Z,65.38
2024-01-24T22:09:01.956Z,59.08
2024-01-24T22:11:30.205Z,56.47
2024-01-24T22:14:02.532Z,57.10
2024-01-24T22:16:32.586Z,53.65
2024-01-24T22:19:10.534Z,57.50
2024-01-24T22:21:42.534Z,66.75
2024-01-24T22:24:11.617Z,69.93
2024-01-24T22:26:40.207Z,64.65
2024-01-24T22:29:10.554Z,58.50
2024-01-24T22:31:40.224Z,59.75
2024-01-24T22:34:22.219Z,72.88
2024-01-24T22:36:58.605Z,69.85
2024-01-24T22:39:27.043Z,70.82
2024-01-24T22:41:57.421Z,60.78
2024-01-24T22:44:26.099Z,65.95
2024-01-24T22:46:55.738Z,78.05
2024-01-24T22:49:24.180Z,60.78
2024-01-24T22:51:52.503Z,53.20
2024-01-24T22:54:20.787Z,68.63
2024-01-24T22:56:48.996Z,63.47
2024-01-24T22:59:17.374Z,67.03
2024-01-24T23:01:45.637Z,71.30
2024-01-24T23:04:15.356Z,80.78
2024-01-24T23:06:43.732Z,70.22
2024-01-24T23:09:12.139Z,57.35
2024-01-24T23:11:40.741Z,65.75
2024-01-24T23:14:09.005Z,61.92
2024-01-24T23:16:37.221Z,61.30
2024-01-24T23:19:05.630Z,61.20
2024-01-24T23:21:35.295Z,64.15
2024-01-24T23:24:03.551Z,57.25
2024-01-24T23:26:31.940Z,62.10
2024-01-24T23:29:00.669Z,59.80
2024-01-24T23:31:28.908Z,64.03
2024-01-24T23:33:57.203Z,62.63
2024-01-24T23:36:25.746Z,63.00
2024-01-24T23:38:56.749Z,81.00
2024-01-24T23:41:25.071Z,61.58
2024-01-24T23:43:53.254Z,65.00
2024-01-24T23:46:23.340Z,64.07
2024-01-24T23:48:52.912Z,63.13
2024-01-24T23:51:21.486Z,64.38
2024-01-24T23:53:50.187Z,60.90
2024-01-24T23:56:19.730Z,65.07
2024-01-24T23:58:48.172Z,58.10
